sensor_id;sensor_type;location;lat;lon;timestamp;pressure;altitude;pressure_sealevel;temperature;humidity
30021;BME280;16861;52.294;7.760;2023-01-29T04:39:48;100942.78;;;2.40;67.57
30021;BME280;16861;52.294;7.760;2023-01-29T04:48:11;100935.00;;;2.33;67.74
30021;BME280;16861;52.294;7.760;2023-01-29T04:50:43;100929.81;;;2.35;68.39
30021;BME280;16861;52.294;7.760;2023-01-29T04:53:21;100928.97;;;2.36;68.34
30021;BME280;16861;52.294;7.760;2023-01-29T04:55:52;100920.28;;;2.37;68.68
30021;BME280;16861;52.294;7.760;2023-01-29T05:00:52;100922.88;;;2.39;69.01
30021;BME280;16861;52.294;7.760;2023-01-29T05:03:22;100934.13;;;2.39;68.72
30021;BME280;16861;52.294;7.760;2023-01-29T05:05:50;100928.03;;;2.42;68.94
30021;BME280;16861;52.294;7.760;2023-01-29T05:08:20;100936.72;;;2.42;68.68
30021;BME280;16861;52.294;7.760;2023-01-29T05:10:51;100938.44;;;2.43;68.29
30021;BME280;16861;52.294;7.760;2023-01-29T05:13:20;100939.31;;;2.47;69.00
30021;BME280;16861;52.294;7.760;2023-01-29T05:15:53;100934.09;;;2.48;68.43
30021;BME280;16861;52.294;7.760;2023-01-29T05:18:21;100938.41;;;2.53;69.26
30021;BME280;16861;52.294;7.760;2023-01-29T05:20:48;100930.59;;;2.53;68.57
30021;BME280;16861;52.294;7.760;2023-01-29T05:23:21;100937.56;;;2.54;68.44
30021;BME280;16861;52.294;7.760;2023-01-29T05:25:49;100936.66;;;2.55;68.75
30021;BME280;16861;52.294;7.760;2023-01-29T05:28:16;100940.13;;;2.57;68.59
30021;BME280;16861;52.294;7.760;2023-01-29T05:30:51;100936.66;;;2.55;68.36
30021;BME280;16861;52.294;7.760;2023-01-29T05:33:25;100928.88;;;2.56;68.10
30021;BME280;16861;52.294;7.760;2023-01-29T05:35:52;100933.19;;;2.59;68.72
30021;BME280;16861;52.294;7.760;2023-01-29T05:38:19;100935.78;;;2.60;68.64
30021;BME280;16861;52.294;7.760;2023-01-29T05:40:45;100940.97;;;2.62;69.13
30021;BME280;16861;52.294;7.760;2023-01-29T05:43:14;100945.31;;;2.63;68.68
30021;BME280;16861;52.294;7.760;2023-01-29T05:45:41;100941.81;;;2.64;68.68
30021;BME280;16861;52.294;7.760;2023-01-29T05:48:08;100928.81;;;2.64;68.98
30021;BME280;16861;52.294;7.760;2023-01-29T05:50:35;100918.41;;;2.66;68.86
30021;BME280;16861;52.294;7.760;2023-01-29T05:53:01;100930.53;;;2.67;68.95
30021;BME280;16861;52.294;7.760;2023-01-29T05:55:28;100927.94;;;2.65;68.85
30021;BME280;16861;52.294;7.760;2023-01-29T05:57:55;100919.31;;;2.66;68.57
30021;BME280;16861;52.294;7.760;2023-01-29T06:00:21;100912.34;;;2.67;68.95
30021;BME280;16861;52.294;7.760;2023-01-29T06:02:48;100916.66;;;2.68;68.75
30021;BME280;16861;52.294;7.760;2023-01-29T06:05:14;100925.34;;;2.67;68.35
30021;BME280;16861;52.294;7.760;2023-01-29T06:07:41;100921.91;;;2.66;69.01
30021;BME280;16861;52.294;7.760;2023-01-29T06:10:13;100930.53;;;2.67;68.98
30021;BME280;16861;52.294;7.760;2023-01-29T06:12:41;100930.53;;;2.67;68.94
30021;BME280;16861;52.294;7.760;2023-01-29T06:15:09;100928.81;;;2.67;68.87
30021;BME280;16861;52.294;7.760;2023-01-29T06:17:36;100931.41;;;2.66;68.93
30021;BME280;16861;52.294;7.760;2023-01-29T06:20:03;100940.94;;;2.65;68.79
30021;BME280;16861;52.294;7.760;2023-01-29T06:22:31;100940.94;;;2.67;68.60
30021;BME280;16861;52.294;7.760;2023-01-29T06:24:58;100939.22;;;2.67;69.33
30021;BME280;16861;52.294;7.760;2023-01-29T06:27:24;100946.13;;;2.67;69.01
30021;BME280;16861;52.294;7.760;2023-01-29T06:29:50;100934.91;;;2.66;68.85
30021;BME280;16861;52.294;7.760;2023-01-29T06:32:17;100923.63;;;2.66;68.95
30021;BME280;16861;52.294;7.760;2023-01-29T06:34:43;100935.75;;;2.65;68.98
30021;BME280;16861;52.294;7.760;2023-01-29T06:37:10;100935.75;;;2.65;69.00
30021;BME280;16861;52.294;7.760;2023-01-29T06:39:36;100943.53;;;2.65;69.08
30021;BME280;16861;52.294;7.760;2023-01-29T06:42:03;100931.44;;;2.64;68.60
30021;BME280;16861;52.294;7.760;2023-01-29T06:44:29;100928.81;;;2.64;69.15
30021;BME280;16861;52.294;7.760;2023-01-29T06:46:56;100913.22;;;2.63;68.96
30021;BME280;16861;52.294;7.760;2023-01-29T06:49:22;100916.72;;;2.60;69.16
30021;BME280;16861;52.294;7.760;2023-01-29T06:51:49;100928.88;;;2.58;68.72
30021;BME280;16861;52.294;7.760;2023-01-29T06:54:15;100931.47;;;2.55;69.00
30021;BME280;16861;52.294;7.760;2023-01-29T06:56:41;100929.75;;;2.51;69.29
30021;BME280;16861;52.294;7.760;2023-01-29T06:59:09;100931.47;;;2.48;69.31
30021;BME280;16861;52.294;7.760;2023-01-29T07:01:38;100926.31;;;2.47;69.01
30021;BME280;16861;52.294;7.760;2023-01-29T07:04:06;100916.78;;;2.46;69.62
30021;BME280;16861;52.294;7.760;2023-01-29T07:06:33;100922.00;;;2.43;69.87
30021;BME280;16861;52.294;7.760;2023-01-29T07:09:00;100924.59;;;2.40;69.42
30021;BME280;16861;52.294;7.760;2023-01-29T07:11:27;100929.81;;;2.38;69.36
30021;BME280;16861;52.294;7.760;2023-01-29T07:13:54;100928.09;;;2.36;69.53
30021;BME280;16861;52.294;7.760;2023-01-29T07:16:20;100929.81;;;2.35;69.93
30021;BME280;16861;52.294;7.760;2023-01-29T07:18:47;100924.63;;;2.35;69.97
30021;BME280;16861;52.294;7.760;2023-01-29T07:21:13;100931.56;;;2.36;69.52
30021;BME280;16861;52.294;7.760;2023-01-29T07:23:40;100928.09;;;2.36;69.86
30021;BME280;16861;52.294;7.760;2023-01-29T07:26:06;100923.75;;;2.34;69.91
30021;BME280;16861;52.294;7.760;2023-01-29T07:28:36;100917.69;;;2.34;70.05
30021;BME280;16861;52.294;7.760;2023-01-29T07:31:04;100915.09;;;2.34;70.17
30021;BME280;16861;52.294;7.760;2023-01-29T07:33:31;100905.56;;;2.36;70.21
30021;BME280;16861;52.294;7.760;2023-01-29T07:35:57;100905.56;;;2.36;70.43
30021;BME280;16861;52.294;7.760;2023-01-29T07:38:24;100914.22;;;2.38;70.73
30021;BME280;16861;52.294;7.760;2023-01-29T07:40:51;100909.88;;;2.40;70.55
30021;BME280;16861;52.294;7.760;2023-01-29T07:43:18;100909.00;;;2.41;70.53
30021;BME280;16861;52.294;7.760;2023-01-29T07:45:44;100904.66;;;2.43;70.71
30021;BME280;16861;52.294;7.760;2023-01-29T07:48:12;100915.94;;;2.45;70.72
30021;BME280;16861;52.294;7.760;2023-01-29T07:50:39;100900.34;;;2.47;70.56
30021;BME280;16861;52.294;7.760;2023-01-29T07:53:06;100905.50;;;2.50;70.67
30021;BME280;16861;52.294;7.760;2023-01-29T07:55:32;100898.56;;;2.51;70.45
30021;BME280;16861;52.294;7.760;2023-01-29T07:58:01;100893.38;;;2.51;70.00
30021;BME280;16861;52.294;7.760;2023-01-29T08:00:30;100895.97;;;2.51;70.51
30021;BME280;16861;52.294;7.760;2023-01-29T08:03:04;100889.91;;;2.52;69.98
30021;BME280;16861;52.294;7.760;2023-01-29T08:05:31;100882.97;;;2.54;70.35
30021;BME280;16861;52.294;7.760;2023-01-29T08:07:58;100885.56;;;2.54;70.40
30021;BME280;16861;52.294;7.760;2023-01-29T08:10:34;100882.97;;;2.54;70.15
30021;BME280;16861;52.294;7.760;2023-01-29T08:13:01;100872.56;;;2.54;70.42
30021;BME280;16861;52.294;7.760;2023-01-29T08:15:28;100862.16;;;2.54;69.99
30021;BME280;16861;52.294;7.760;2023-01-29T08:17:55;100860.41;;;2.56;69.97
30021;BME280;16861;52.294;7.760;2023-01-29T08:20:24;100851.75;;;2.55;69.94
30021;BME280;16861;52.294;7.760;2023-01-29T08:23:04;100847.44;;;2.53;70.11
30021;BME280;16861;52.294;7.760;2023-01-29T08:25:31;100868.22;;;2.56;70.40
30021;BME280;16861;52.294;7.760;2023-01-29T08:27:59;100856.94;;;2.57;70.69
30021;BME280;16861;52.294;7.760;2023-01-29T08:30:28;100855.22;;;2.59;70.28
30021;BME280;16861;52.294;7.760;2023-01-29T08:32:55;100852.59;;;2.62;70.37
30021;BME280;16861;52.294;7.760;2023-01-29T08:35:22;100849.09;;;2.65;70.63
30021;BME280;16861;52.294;7.760;2023-01-29T08:37:56;100846.50;;;2.66;70.35
30021;BME280;16861;52.294;7.760;2023-01-29T08:40:25;100833.47;;;2.69;70.65
30021;BME280;16861;52.294;7.760;2023-01-29T08:42:52;100834.34;;;2.71;70.19
30021;BME280;16861;52.294;7.760;2023-01-29T08:45:18;100843.84;;;2.76;70.50
30021;BME280;16861;52.294;7.760;2023-01-29T08:47:46;100847.28;;;2.78;70.38
30021;BME280;16861;52.294;7.760;2023-01-29T08:50:13;100842.94;;;2.80;70.07
30021;BME280;16861;52.294;7.760;2023-01-29T08:52:41;100855.06;;;2.81;70.31
30021;BME280;16861;52.294;7.760;2023-01-29T08:55:08;100849.84;;;2.84;70.18
30021;BME280;16861;52.294;7.760;2023-01-29T08:57:36;100857.59;;;2.89;70.77
30021;BME280;16861;52.294;7.760;2023-01-29T09:00:04;100851.50;;;2.91;70.29
30021;BME280;16861;52.294;7.760;2023-01-29T09:02:31;100839.31;;;2.96;70.08
30021;BME280;16861;52.294;7.760;2023-01-29T09:04:58;100836.72;;;3.01;70.86
30021;BME280;16861;52.294;7.760;2023-01-29T09:07:24;100845.34;;;3.05;70.60
30021;BME280;16861;52.294;7.760;2023-01-29T09:09:50;100842.69;;;3.12;70.38
30021;BME280;16861;52.294;7.760;2023-01-29T09:12:17;100857.38;;;3.18;70.69
30021;BME280;16861;52.294;7.760;2023-01-29T09:14:43;100853.84;;;3.24;70.51
30021;BME280;16861;52.294;7.760;2023-01-29T09:17:10;100859.03;;;3.25;70.35
30021;BME280;16861;52.294;7.760;2023-01-29T09:19:36;100865.94;;;3.31;69.92
30021;BME280;16861;52.294;7.760;2023-01-29T09:22:03;100867.66;;;3.34;70.12
30021;BME280;16861;52.294;7.760;2023-01-29T09:24:29;100858.06;;;3.37;69.82
30021;BME280;16861;52.294;7.760;2023-01-29T09:26:56;100871.06;;;3.41;70.31
30021;BME280;16861;52.294;7.760;2023-01-29T09:29:22;100875.38;;;3.45;69.71
30021;BME280;16861;52.294;7.760;2023-01-29T09:31:48;100879.69;;;3.46;69.76
30021;BME280;16861;52.294;7.760;2023-01-29T09:34:15;100862.31;;;3.49;69.95
30021;BME280;16861;52.294;7.760;2023-01-29T09:36:41;100866.63;;;3.52;70.04
30021;BME280;16861;52.294;7.760;2023-01-29T09:39:08;100862.25;;;3.54;69.87
30021;BME280;16861;52.294;7.760;2023-01-29T09:41:48;100859.66;;;3.52;68.50
30021;BME280;16861;52.294;7.760;2023-01-29T09:47:16;100854.41;;;3.59;69.66
30021;BME280;16861;52.294;7.760;2023-01-29T09:50:04;100849.22;;;3.57;68.51
30021;BME280;16861;52.294;7.760;2023-01-29T09:52:35;100850.91;;;3.61;69.37
30021;BME280;16861;52.294;7.760;2023-01-29T09:55:36;100845.69;;;3.63;68.33
30021;BME280;16861;52.294;7.760;2023-01-29T09:58:29;100845.63;;;3.66;67.93
30021;BME280;16861;52.294;7.760;2023-01-29T10:06:27;100828.16;;;3.77;69.09
30021;BME280;16861;52.294;7.760;2023-01-29T10:12:06;100815.94;;;3.84;68.49
30021;BME280;16861;52.294;7.760;2023-01-29T10:20:35;100813.31;;;3.86;67.71
30021;BME280;16861;52.294;7.760;2023-01-29T10:23:27;100808.06;;;3.89;67.85
30021;BME280;16861;52.294;7.760;2023-01-29T10:25:55;100801.94;;;3.93;69.43
30021;BME280;16861;52.294;7.760;2023-01-29T10:28:30;100804.59;;;3.90;68.76
30021;BME280;16861;52.294;7.760;2023-01-29T10:31:03;100804.56;;;3.93;68.44
30021;BME280;16861;52.294;7.760;2023-01-29T10:33:37;100796.69;;;3.95;68.44
30021;BME280;16861;52.294;7.760;2023-01-29T10:36:25;100794.06;;;3.96;68.79
30021;BME280;16861;52.294;7.760;2023-01-29T10:38:53;100792.31;;;3.98;68.97
30021;BME280;16861;52.294;7.760;2023-01-29T10:49:09;100772.31;;;4.00;67.41
30021;BME280;16861;52.294;7.760;2023-01-29T10:51:51;100767.06;;;4.03;68.25
30021;BME280;16861;52.294;7.760;2023-01-29T10:54:47;100760.97;;;4.04;68.02
30021;BME280;16861;52.294;7.760;2023-01-29T11:02:33;100759.19;;;4.08;68.38
30021;BME280;16861;52.294;7.760;2023-01-29T11:04:59;100759.19;;;4.08;68.02
30021;BME280;16861;52.294;7.760;2023-01-29T11:07:26;100747.91;;;4.06;67.94
30021;BME280;16861;52.294;7.760;2023-01-29T11:10:12;100741.84;;;4.06;67.24
30021;BME280;16861;52.294;7.760;2023-01-29T11:12:40;100734.88;;;4.08;67.86
30021;BME280;16861;52.294;7.760;2023-01-29T11:15:30;100740.13;;;4.04;65.94
30021;BME280;16861;52.294;7.760;2023-01-29T11:18:06;100735.78;;;4.05;65.60
30021;BME280;16861;52.294;7.760;2023-01-29T11:20:35;100722.72;;;4.08;67.77
30021;BME280;16861;52.294;7.760;2023-01-29T11:23:02;100720.97;;;4.09;67.93
30021;BME280;16861;52.294;7.760;2023-01-29T11:25:30;100727.03;;;4.11;68.08
30021;BME280;16861;52.294;7.760;2023-01-29T11:27:59;100720.94;;;4.10;67.58
30021;BME280;16861;52.294;7.760;2023-01-29T11:33:21;100714.94;;;4.05;63.96
30021;BME280;16861;52.294;7.760;2023-01-29T11:35:48;100701.00;;;4.08;67.43
30021;BME280;16861;52.294;7.760;2023-01-29T11:38:25;100696.69;;;4.05;66.06
30021;BME280;16861;52.294;7.760;2023-01-29T11:40:52;100697.53;;;4.06;66.93
30021;BME280;16861;52.294;7.760;2023-01-29T11:43:30;100692.34;;;4.06;66.98
30021;BME280;16861;52.294;7.760;2023-01-29T11:46:02;100686.31;;;4.02;64.91
30021;BME280;16861;52.294;7.760;2023-01-29T11:54:22;100670.66;;;4.03;66.67
30021;BME280;16861;52.294;7.760;2023-01-29T11:56:53;100667.16;;;4.04;67.22
30021;BME280;16861;52.294;7.760;2023-01-29T11:59:56;100660.25;;;4.02;65.38
30021;BME280;16861;52.294;7.760;2023-01-29T12:25:23;100628.97;;;4.05;66.58
30021;BME280;16861;52.294;7.760;2023-01-29T12:34:16;100622.06;;;4.02;64.59
30021;BME280;16861;52.294;7.760;2023-01-29T12:48:00;100606.41;;;4.04;64.33
30021;BME280;16861;52.294;7.760;2023-01-29T12:55:52;100595.13;;;4.03;65.00
30021;BME280;16861;52.294;7.760;2023-01-29T12:58:20;100583.81;;;4.04;63.93
30021;BME280;16861;52.294;7.760;2023-01-29T13:00:53;100589.88;;;4.07;66.78
30021;BME280;16861;52.294;7.760;2023-01-29T13:03:54;100574.28;;;4.02;65.64
30021;BME280;16861;52.294;7.760;2023-01-29T13:09:29;100575.19;;;4.01;66.58
30021;BME280;16861;52.294;7.760;2023-01-29T13:12:37;100556.06;;;4.02;67.12
30021;BME280;16861;52.294;7.760;2023-01-29T13:15:42;100543.06;;;4.00;66.63
30021;BME280;16861;52.294;7.760;2023-01-29T13:21:41;100549.03;;;4.06;67.42
30021;BME280;16861;52.294;7.760;2023-01-29T13:24:28;100545.63;;;4.02;66.98
30021;BME280;16861;52.294;7.760;2023-01-29T13:27:20;100548.19;;;4.05;67.82
30021;BME280;16861;52.294;7.760;2023-01-29T13:30:22;100534.34;;;4.01;66.83
30021;BME280;16861;52.294;7.760;2023-01-29T13:33:03;100536.91;;;4.04;67.63
30021;BME280;16861;52.294;7.760;2023-01-29T13:36:08;100542.97;;;4.05;67.15
30021;BME280;16861;52.294;7.760;2023-01-29T13:39:14;100523.03;;;4.04;66.67
30021;BME280;16861;52.294;7.760;2023-01-29T13:41:54;100537.75;;;4.07;68.32
30021;BME280;16861;52.294;7.760;2023-01-29T13:44:36;100523.06;;;4.02;67.04
30021;BME280;16861;52.294;7.760;2023-01-29T13:47:37;100513.47;;;4.03;67.17
30021;BME280;16861;52.294;7.760;2023-01-29T13:50:17;100517.81;;;4.04;67.91
30021;BME280;16861;52.294;7.760;2023-01-29T13:52:52;100516.06;;;4.04;67.78
30021;BME280;16861;52.294;7.760;2023-01-29T13:55:26;100507.41;;;4.04;68.06
30021;BME280;16861;52.294;7.760;2023-01-29T13:58:01;100510.00;;;4.04;68.62
30021;BME280;16861;52.294;7.760;2023-01-29T14:08:00;100490.97;;;3.99;68.58
30021;BME280;16861;52.294;7.760;2023-01-29T14:10:30;100494.44;;;3.99;68.65
30021;BME280;16861;52.294;7.760;2023-01-29T14:15:36;100498.88;;;3.94;68.36
30021;BME280;16861;52.294;7.760;2023-01-29T14:21:03;100492.81;;;3.92;68.39
30021;BME280;16861;52.294;7.760;2023-01-29T14:32:08;100492.81;;;3.92;68.38
30021;BME280;16861;52.294;7.760;2023-01-29T14:34:43;100491.06;;;3.94;69.00
30021;BME280;16861;52.294;7.760;2023-01-29T14:42:44;100486.78;;;3.91;69.22
30021;BME280;16861;52.294;7.760;2023-01-29T14:45:33;100479.00;;;3.88;68.85
30021;BME280;16861;52.294;7.760;2023-01-29T14:48:36;100482.53;;;3.86;68.42
30021;BME280;16861;52.294;7.760;2023-01-29T14:51:15;100479.13;;;3.82;68.93
30021;BME280;16861;52.294;7.760;2023-01-29T14:54:05;100479.16;;;3.81;69.16
30021;BME280;16861;52.294;7.760;2023-01-29T14:56:43;100479.16;;;3.81;69.45
30021;BME280;16861;52.294;7.760;2023-01-29T14:59:18;100483.59;;;3.75;69.30
30021;BME280;16861;52.294;7.760;2023-01-29T15:01:51;100471.44;;;3.73;69.55
30021;BME280;16861;52.294;7.760;2023-01-29T15:04:25;100467.16;;;3.70;69.25
30021;BME280;16861;52.294;7.760;2023-01-29T15:09:48;100480.28;;;3.64;69.72
30021;BME280;16861;52.294;7.760;2023-01-29T15:14:59;100477.84;;;3.55;69.97
30021;BME280;16861;52.294;7.760;2023-01-29T15:20:25;100458.75;;;3.52;69.93
30021;BME280;16861;52.294;7.760;2023-01-29T15:22:51;100462.22;;;3.55;70.14
30021;BME280;16861;52.294;7.760;2023-01-29T15:25:18;100454.44;;;3.53;70.22
30021;BME280;16861;52.294;7.760;2023-01-29T15:27:47;100457.06;;;3.51;70.74
30021;BME280;16861;52.294;7.760;2023-01-29T15:30:20;100448.44;;;3.49;70.22
30021;BME280;16861;52.294;7.760;2023-01-29T15:32:47;100435.34;;;3.51;70.64
30021;BME280;16861;52.294;7.760;2023-01-29T15:40:26;100418.91;;;3.50;70.49
30021;BME280;16861;52.294;7.760;2023-01-29T15:42:52;100423.25;;;3.50;70.57
30021;BME280;16861;52.294;7.760;2023-01-29T15:45:29;100418.97;;;3.46;70.30
30021;BME280;16861;52.294;7.760;2023-01-29T15:48:02;100412.94;;;3.44;69.90
30021;BME280;16861;52.294;7.760;2023-01-29T15:50:36;100403.34;;;3.46;70.53
30021;BME280;16861;52.294;7.760;2023-01-29T15:53:08;100399.00;;;3.46;70.74
30021;BME280;16861;52.294;7.760;2023-01-29T15:55:35;100391.22;;;3.46;70.71
30021;BME280;16861;52.294;7.760;2023-01-29T15:58:02;100396.41;;;3.46;70.81
30021;BME280;16861;52.294;7.760;2023-01-29T16:00:29;100395.53;;;3.47;70.85
30021;BME280;16861;52.294;7.760;2023-01-29T16:02:57;100398.97;;;3.49;70.97
30021;BME280;16861;52.294;7.760;2023-01-29T16:05:29;100397.22;;;3.48;70.47
30021;BME280;16861;52.294;7.760;2023-01-29T16:07:59;100387.66;;;3.50;70.83
30021;BME280;16861;52.294;7.760;2023-01-29T16:10:29;100376.34;;;3.51;70.36
30021;BME280;16861;52.294;7.760;2023-01-29T16:12:57;100394.59;;;3.51;70.43
30021;BME280;16861;52.294;7.760;2023-01-29T16:15:32;100392.03;;;3.48;70.37
30021;BME280;16861;52.294;7.760;2023-01-29T16:18:02;100387.66;;;3.52;70.53
30021;BME280;16861;52.294;7.760;2023-01-29T16:20:35;100401.56;;;3.49;69.90
30021;BME280;16861;52.294;7.760;2023-01-29T16:23:03;100382.47;;;3.49;69.50
30021;BME280;16861;52.294;7.760;2023-01-29T16:25:31;100379.84;;;3.52;70.25
30021;BME280;16861;52.294;7.760;2023-01-29T16:28:02;100383.38;;;3.48;70.06
30021;BME280;16861;52.294;7.760;2023-01-29T16:30:29;100392.03;;;3.47;70.76
30021;BME280;16861;52.294;7.760;2023-01-29T16:33:01;100382.56;;;3.44;70.43
30021;BME280;16861;52.294;7.760;2023-01-29T16:35:29;100379.13;;;3.42;70.47
30021;BME280;16861;52.294;7.760;2023-01-29T16:38:00;100380.03;;;3.39;70.97
30021;BME280;16861;52.294;7.760;2023-01-29T16:40:31;100379.19;;;3.39;70.61
30021;BME280;16861;52.294;7.760;2023-01-29T16:45:42;100373.97;;;3.39;71.22
30021;BME280;16861;52.294;7.760;2023-01-29T16:48:31;100356.69;;;3.35;70.85
30021;BME280;16861;52.294;7.760;2023-01-29T16:51:18;100361.91;;;3.35;70.85
30021;BME280;16861;52.294;7.760;2023-01-29T16:53:55;100369.78;;;3.32;71.17
30021;BME280;16861;52.294;7.760;2023-01-29T16:56:22;100373.22;;;3.32;71.43
30021;BME280;16861;52.294;7.760;2023-01-29T16:58:51;100377.59;;;3.32;71.31
30021;BME280;16861;52.294;7.760;2023-01-29T17:01:19;100366.31;;;3.30;71.62
30021;BME280;16861;52.294;7.760;2023-01-29T17:04:10;100366.44;;;3.23;71.69
30021;BME280;16861;52.294;7.760;2023-01-29T17:06:44;100362.94;;;3.24;71.82
30021;BME280;16861;52.294;7.760;2023-01-29T17:09:20;100354.28;;;3.22;72.06
30021;BME280;16861;52.294;7.760;2023-01-29T17:12:03;100367.31;;;3.22;71.85
30021;BME280;16861;52.294;7.760;2023-01-29T17:14:32;100352.56;;;3.23;72.24
30021;BME280;16861;52.294;7.760;2023-01-29T17:17:06;100351.69;;;3.22;72.18
30021;BME280;16861;52.294;7.760;2023-01-29T17:19:32;100345.66;;;3.22;72.12
30021;BME280;16861;52.294;7.760;2023-01-29T17:21:59;100350.88;;;3.20;72.31
30021;BME280;16861;52.294;7.760;2023-01-29T17:24:30;100339.59;;;3.20;72.31
30021;BME280;16861;52.294;7.760;2023-01-29T17:26:56;100330.88;;;3.22;72.61
30021;BME280;16861;52.294;7.760;2023-01-29T17:29:26;100319.69;;;3.19;72.57
30021;BME280;16861;52.294;7.760;2023-01-29T17:31:54;100320.53;;;3.19;72.77
30021;BME280;16861;52.294;7.760;2023-01-29T17:34:22;100322.25;;;3.20;73.22
30021;BME280;16861;52.294;7.760;2023-01-29T17:36:49;100317.06;;;3.20;72.83
30021;BME280;16861;52.294;7.760;2023-01-29T17:39:21;100302.34;;;3.19;72.84
30021;BME280;16861;52.294;7.760;2023-01-29T17:41:53;100301.50;;;3.17;72.90
30021;BME280;16861;52.294;7.760;2023-01-29T17:44:21;100301.41;;;3.22;72.95
30021;BME280;16861;52.294;7.760;2023-01-29T17:46:48;100304.03;;;3.22;72.95
30021;BME280;16861;52.294;7.760;2023-01-29T17:49:23;100291.91;;;3.21;73.36
30021;BME280;16861;52.294;7.760;2023-01-29T17:51:51;100283.22;;;3.22;73.06
30021;BME280;16861;52.294;7.760;2023-01-29T17:54:19;100289.25;;;3.22;73.64
30021;BME280;16861;52.294;7.760;2023-01-29T17:56:46;100284.03;;;3.24;73.22
30021;BME280;16861;52.294;7.760;2023-01-29T17:59:14;100278.78;;;3.25;73.47
30021;BME280;16861;52.294;7.760;2023-01-29T18:01:42;100272.66;;;3.28;73.79
30021;BME280;16861;52.294;7.760;2023-01-29T18:04:08;100263.97;;;3.29;73.98
30021;BME280;16861;52.294;7.760;2023-01-29T18:06:35;100265.72;;;3.30;74.02
30021;BME280;16861;52.294;7.760;2023-01-29T18:09:02;100266.53;;;3.32;73.62
30021;BME280;16861;52.294;7.760;2023-01-29T18:11:29;100267.44;;;3.31;73.64
30021;BME280;16861;52.294;7.760;2023-01-29T18:13:56;100260.44;;;3.33;73.68
30021;BME280;16861;52.294;7.760;2023-01-29T18:16:23;100264.72;;;3.36;73.87
30021;BME280;16861;52.294;7.760;2023-01-29T18:18:51;100258.66;;;3.37;73.73
30021;BME280;16861;52.294;7.760;2023-01-29T18:21:17;100255.19;;;3.35;73.83
30021;BME280;16861;52.294;7.760;2023-01-29T18:23:44;100251.69;;;3.37;73.94
30021;BME280;16861;52.294;7.760;2023-01-29T18:26:11;100241.28;;;3.37;73.66
30021;BME280;16861;52.294;7.760;2023-01-29T18:28:38;100236.94;;;3.38;73.69
30021;BME280;16861;52.294;7.760;2023-01-29T18:31:05;100237.81;;;3.38;73.68
30021;BME280;16861;52.294;7.760;2023-01-29T18:33:32;100236.03;;;3.39;73.49
30021;BME280;16861;52.294;7.760;2023-01-29T18:35:59;100233.44;;;3.39;73.58
30021;BME280;16861;52.294;7.760;2023-01-29T18:38:26;100223.91;;;3.39;73.35
30021;BME280;16861;52.294;7.760;2023-01-29T18:40:52;100229.88;;;3.43;74.22
30021;BME280;16861;52.294;7.760;2023-01-29T18:43:19;100222.94;;;3.44;74.01
30021;BME280;16861;52.294;7.760;2023-01-29T18:45:45;100205.56;;;3.44;74.24
30021;BME280;16861;52.294;7.760;2023-01-29T18:48:12;100215.06;;;3.47;74.08
30021;BME280;16861;52.294;7.760;2023-01-29T18:50:46;100196.09;;;3.42;73.11
30021;BME280;16861;52.294;7.760;2023-01-29T18:53:33;100190.75;;;3.49;73.98
30021;BME280;16861;52.294;7.760;2023-01-29T18:56:04;100192.50;;;3.47;73.92
30021;BME280;16861;52.294;7.760;2023-01-29T18:58:32;100209.00;;;3.48;73.89
30021;BME280;16861;52.294;7.760;2023-01-29T19:01:06;100199.41;;;3.48;73.63
30021;BME280;16861;52.294;7.760;2023-01-29T19:03:36;100185.53;;;3.49;74.15
30021;BME280;16861;52.294;7.760;2023-01-29T19:06:05;100183.00;;;3.46;73.72
30021;BME280;16861;52.294;7.760;2023-01-29T19:08:32;100186.38;;;3.50;73.70
30021;BME280;16861;52.294;7.760;2023-01-29T19:10:59;100158.66;;;3.47;73.92
30021;BME280;16861;52.294;7.760;2023-01-29T19:13:32;100160.31;;;3.51;74.00
30021;BME280;16861;52.294;7.760;2023-01-29T19:15:59;100149.88;;;3.53;74.23
30021;BME280;16861;52.294;7.760;2023-01-29T19:18:26;100159.41;;;3.52;73.99
30021;BME280;16861;52.294;7.760;2023-01-29T19:20:53;100162.06;;;3.51;73.83
30021;BME280;16861;52.294;7.760;2023-01-29T19:23:21;100156.81;;;3.52;73.95
30021;BME280;16861;52.294;7.760;2023-01-29T19:25:48;100157.69;;;3.53;73.82
30021;BME280;16861;52.294;7.760;2023-01-29T19:28:14;100139.44;;;3.55;73.85
30021;BME280;16861;52.294;7.760;2023-01-29T19:30:41;100133.41;;;3.52;73.79
30021;BME280;16861;52.294;7.760;2023-01-29T19:33:08;100118.63;;;3.55;73.74
30021;BME280;16861;52.294;7.760;2023-01-29T19:35:35;100111.66;;;3.55;73.83
30021;BME280;16861;52.294;7.760;2023-01-29T19:38:02;100114.25;;;3.55;73.97
30021;BME280;16861;52.294;7.760;2023-01-29T19:40:29;100134.22;;;3.56;74.01
30021;BME280;16861;52.294;7.760;2023-01-29T19:42:55;100124.63;;;3.57;73.94
30021;BME280;16861;52.294;7.760;2023-01-29T19:45:22;100106.41;;;3.57;73.79
30021;BME280;16861;52.294;7.760;2023-01-29T19:48:11;100098.56;;;3.58;73.98
30021;BME280;16861;52.294;7.760;2023-01-29T19:50:38;100096.00;;;3.57;73.76
30021;BME280;16861;52.294;7.760;2023-01-29T19:53:05;100078.69;;;3.56;74.01
30021;BME280;16861;52.294;7.760;2023-01-29T19:55:31;100081.25;;;3.57;74.15
30021;BME280;16861;52.294;7.760;2023-01-29T19:57:58;100071.66;;;3.58;74.03
30021;BME280;16861;52.294;7.760;2023-01-29T20:00:24;100083.84;;;3.57;74.11
30021;BME280;16861;52.294;7.760;2023-01-29T20:02:51;100080.38;;;3.57;74.38
30021;BME280;16861;52.294;7.760;2023-01-29T20:05:17;100069.06;;;3.58;74.11
30021;BME280;16861;52.294;7.760;2023-01-29T20:07:45;100077.69;;;3.61;74.25
30021;BME280;16861;52.294;7.760;2023-01-29T20:10:12;100062.03;;;3.63;74.45
30021;BME280;16861;52.294;7.760;2023-01-29T20:12:43;100064.59;;;3.64;74.25
30021;BME280;16861;52.294;7.760;2023-01-29T20:15:11;100060.19;;;3.67;74.18
30021;BME280;16861;52.294;7.760;2023-01-29T20:17:38;100066.28;;;3.67;74.34
30021;BME280;16861;52.294;7.760;2023-01-29T20:20:05;100057.53;;;3.70;74.40
30021;BME280;16861;52.294;7.760;2023-01-29T20:22:32;100060.91;;;3.73;74.31